createdAt,value
2023-01-27T00:01:02.674Z,103115.81
2023-01-27T00:03:07.250Z,103122.84
2023-01-27T00:05:12.954Z,103122.88
2023-01-27T00:07:17.286Z,103120.25
2023-01-27T00:09:21.221Z,103113.28
2023-01-27T00:11:43.075Z,103119.41
2023-01-27T00:13:48.381Z,103114.19
2023-01-27T00:15:55.565Z,103120.34
2023-01-27T00:18:05.037Z,103115.09
2023-01-27T00:20:11.691Z,103123.00
2023-01-27T00:22:33.257Z,103114.25
2023-01-27T00:24:36.337Z,103116.03
2023-01-27T00:26:40.635Z,103116.91
2023-01-27T00:28:46.150Z,103120.41
2023-01-27T00:30:52.079Z,103108.16
2023-01-27T00:33:13.673Z,103106.41
2023-01-27T00:35:17.937Z,103100.28
2023-01-27T00:37:22.631Z,103108.16
2023-01-27T00:39:27.464Z,103096.78
2023-01-27T00:41:34.340Z,103093.31
2023-01-27T00:43:38.558Z,103086.31
2023-01-27T00:45:52.890Z,103084.56
2023-01-27T00:47:59.018Z,103084.56
2023-01-27T00:50:02.990Z,103083.69
2023-01-27T00:52:06.817Z,103079.34
2023-01-27T00:54:11.861Z,103075.84
2023-01-27T00:56:16.179Z,103073.25
2023-01-27T00:58:20.411Z,103072.38
2023-01-27T01:00:24.380Z,103070.63
2023-01-27T01:02:28.532Z,103064.50
2023-01-27T01:04:34.257Z,103068.91
2023-01-27T01:06:38.117Z,103069.78
2023-01-27T01:08:42.124Z,103067.16
2023-01-27T01:10:47.469Z,103061.03
2023-01-27T01:12:52.283Z,103063.69
2023-01-27T01:14:56.816Z,103066.31
2023-01-27T01:17:00.840Z,103054.91
2023-01-27T01:19:04.849Z,103052.28
2023-01-27T01:21:10.992Z,103052.31
2023-01-27T01:23:16.147Z,103054.94
2023-01-27T01:25:20.029Z,103052.31
2023-01-27T01:27:24.036Z,103047.06
2023-01-27T01:29:28.305Z,103051.44
2023-01-27T01:31:32.217Z,103044.44
2023-01-27T01:33:36.246Z,103052.31
2023-01-27T01:35:40.729Z,103053.16
2023-01-27T01:37:47.450Z,103060.16
2023-01-27T01:39:51.488Z,103041.78
2023-01-27T01:41:57.876Z,103045.31
2023-01-27T01:44:22.001Z,103042.69
2023-01-27T01:46:30.205Z,103045.28
2023-01-27T01:48:43.480Z,103040.03
2023-01-27T01:50:53.381Z,103043.53
2023-01-27T01:53:04.927Z,103041.78
2023-01-27T01:55:10.768Z,103042.66
2023-01-27T01:57:23.065Z,103045.25
2023-01-27T01:59:36.981Z,103040.88
2023-01-27T02:01:44.855Z,103037.38
2023-01-27T02:03:56.521Z,103034.72
2023-01-27T02:06:03.223Z,103030.34
2023-01-27T02:08:15.434Z,103032.09
2023-01-27T02:10:21.723Z,103029.44
2023-01-27T02:12:25.637Z,103026.81
2023-01-27T02:14:30.297Z,103025.06
2023-01-27T02:16:37.179Z,103029.47
2023-01-27T02:18:43.805Z,103027.69
2023-01-27T02:20:49.399Z,103028.56
2023-01-27T02:23:01.761Z,103023.31
2023-01-27T02:25:15.932Z,103027.69
2023-01-27T02:27:21.694Z,103021.59
2023-01-27T02:29:26.063Z,103023.34
2023-01-27T02:31:30.470Z,103018.97
2023-01-27T02:33:34.794Z,103016.34
2023-01-27T02:35:43.160Z,103012.84
2023-01-27T02:37:49.310Z,103014.56
2023-01-27T02:39:55.470Z,103008.47
2023-01-27T02:42:03.642Z,103013.72
2023-01-27T02:44:15.108Z,103011.94
2023-01-27T02:46:19.653Z,103004.97
2023-01-27T02:48:33.360Z,103000.59
2023-01-27T02:50:38.121Z,102997.09
2023-01-27T02:52:42.546Z,103004.97
2023-01-27T02:54:47.075Z,103007.63
2023-01-27T02:56:52.545Z,103006.72
2023-01-27T02:58:56.394Z,103006.75
2023-01-27T03:01:10.284Z,103011.09
2023-01-27T03:03:13.929Z,103007.59
2023-01-27T03:05:17.504Z,103001.47
2023-01-27T03:07:20.729Z,103013.72
2023-01-27T03:09:24.088Z,103016.38
2023-01-27T03:11:45.275Z,103016.38
2023-01-27T03:13:48.831Z,103018.97
2023-01-27T03:16:09.942Z,103021.59
2023-01-27T03:18:14.068Z,103006.69
2023-01-27T03:20:18.872Z,103009.31
2023-01-27T03:22:22.791Z,103011.94
2023-01-27T03:24:26.481Z,103012.81
2023-01-27T03:26:33.329Z,103010.19
2023-01-27T03:28:37.807Z,103000.53
2023-01-27T03:30:44.327Z,102998.81
2023-01-27T03:32:53.737Z,102990.03
2023-01-27T03:35:23.590Z,102996.16
2023-01-27T03:37:45.611Z,102998.78
2023-01-27T03:40:06.843Z,102989.19
2023-01-27T03:42:27.708Z,102989.19
2023-01-27T03:44:50.109Z,102985.69
2023-01-27T03:46:53.738Z,102987.44
2023-01-27T03:48:57.938Z,102984.81
2023-01-27T03:51:04.004Z,102985.69
2023-01-27T03:53:08.053Z,102979.56
2023-01-27T03:55:12.052Z,102984.81
2023-01-27T03:57:16.184Z,102979.56
2023-01-27T03:59:19.469Z,102974.34
2023-01-27T04:01:24.620Z,102972.59
2023-01-27T04:03:48.828Z,102969.06
2023-01-27T04:06:10.178Z,102971.72
2023-01-27T04:08:15.047Z,102974.34
2023-01-27T04:10:18.515Z,102979.59
2023-01-27T04:12:20.859Z,102978.75
2023-01-27T04:14:27.046Z,102984.88
2023-01-27T04:16:30.714Z,102981.38
2023-01-27T04:18:34.142Z,102982.25
2023-01-27T04:20:37.891Z,102975.22
2023-01-27T04:22:41.543Z,102976.06
2023-01-27T04:24:46.270Z,102977.81
2023-01-27T04:26:52.075Z,102970.81
2023-01-27T04:28:55.718Z,102968.19
2023-01-27T04:31:00.436Z,102976.03
2023-01-27T04:33:04.857Z,102968.16
2023-01-27T04:35:09.039Z,102967.28
2023-01-27T04:37:12.936Z,102966.41
2023-01-27T04:39:18.234Z,102969.91
2023-01-27T04:41:23.264Z,102964.66
2023-01-27T04:43:26.659Z,102969.00
2023-01-27T04:45:29.951Z,102972.53
2023-01-27T04:47:33.594Z,102968.13
2023-01-27T04:49:37.340Z,102967.28
2023-01-27T04:51:41.630Z,102971.63
2023-01-27T04:53:45.623Z,102964.66
2023-01-27T04:55:50.410Z,102966.38
2023-01-27T04:57:55.502Z,102969.91
2023-01-27T04:59:58.978Z,102974.28
2023-01-27T05:02:04.787Z,102971.66
2023-01-27T05:04:08.357Z,102966.41
2023-01-27T05:06:12.822Z,102973.38
2023-01-27T05:08:16.343Z,102970.75
2023-01-27T05:10:20.230Z,102968.13
2023-01-27T05:12:23.826Z,102965.50
2023-01-27T05:14:28.771Z,102967.28
2023-01-27T05:16:32.575Z,102971.63
2023-01-27T05:18:36.666Z,102976.88
2023-01-27T05:20:40.199Z,102970.78
2023-01-27T05:22:43.917Z,102977.78
2023-01-27T05:24:47.614Z,102974.28
2023-01-27T05:26:51.232Z,102974.28
2023-01-27T05:28:55.541Z,102976.03
2023-01-27T05:31:05.004Z,102976.03
2023-01-27T05:33:10.984Z,102976.00
2023-01-27T05:35:15.081Z,102973.38
2023-01-27T05:37:18.787Z,102980.38
2023-01-27T05:39:22.197Z,102977.75
2023-01-27T05:41:25.716Z,102976.88
2023-01-27T05:43:30.030Z,102975.09
2023-01-27T05:45:35.061Z,102976.00
2023-01-27T05:47:42.483Z,102977.72
2023-01-27T05:49:46.265Z,102978.63
2023-01-27T05:51:49.849Z,102979.50
2023-01-27T05:53:54.558Z,102983.00
2023-01-27T05:55:58.348Z,102978.63
2023-01-27T05:58:03.814Z,102983.03
2023-01-27T06:00:11.083Z,102974.25
2023-01-27T06:02:15.633Z,102985.66
2023-01-27T06:04:20.645Z,102976.03
2023-01-27T06:06:26.340Z,102979.53
2023-01-27T06:08:29.879Z,102979.53
2023-01-27T06:10:37.254Z,102976.94
2023-01-27T06:12:40.712Z,102980.41
2023-01-27T06:14:44.712Z,102976.06
2023-01-27T06:16:49.820Z,102978.69
2023-01-27T06:18:53.837Z,102970.81
2023-01-27T06:21:00.636Z,102970.81
2023-01-27T06:23:04.046Z,102969.94
2023-01-27T06:25:08.517Z,102969.94
2023-01-27T06:27:11.983Z,102969.03
2023-01-27T06:29:15.955Z,102970.81
2023-01-27T06:31:26.149Z,102968.19
2023-01-27T06:33:31.988Z,102962.94
2023-01-27T06:35:39.610Z,102960.31
2023-01-27T06:37:46.367Z,102966.44
2023-01-27T06:39:49.936Z,102971.69
2023-01-27T06:41:53.340Z,102969.94
2023-01-27T06:43:56.828Z,102963.81
2023-01-27T06:46:03.030Z,102969.94
2023-01-27T06:48:09.855Z,102963.84
2023-01-27T06:50:14.025Z,102962.06
2023-01-27T06:52:19.830Z,102955.97
2023-01-27T06:54:26.091Z,102963.81
2023-01-27T06:56:30.669Z,102962.09
2023-01-27T06:58:34.740Z,102965.63
2023-01-27T07:00:39.539Z,102970.84
2023-01-27T07:02:44.035Z,102962.09
2023-01-27T07:04:47.995Z,102962.09
2023-01-27T07:06:52.540Z,102958.63
2023-01-27T07:08:56.179Z,102962.09
2023-01-27T07:11:03.774Z,102963.84
2023-01-27T07:13:08.488Z,102963.84
2023-01-27T07:15:14.711Z,102965.59
2023-01-27T07:17:19.212Z,102965.63
2023-01-27T07:19:22.894Z,102974.34
2023-01-27T07:21:26.839Z,102974.34
2023-01-27T07:23:30.704Z,102976.13
2023-01-27T07:25:36.490Z,102969.09
2023-01-27T07:27:41.679Z,102977.88
2023-01-27T07:29:45.327Z,102980.47
2023-01-27T07:31:49.005Z,102976.97
2023-01-27T07:33:54.380Z,102976.97
2023-01-27T07:35:58.711Z,102984.81
2023-01-27T07:38:02.636Z,102987.44
2023-01-27T07:40:06.855Z,102986.59
2023-01-27T07:42:10.854Z,102999.72
2023-01-27T07:44:16.864Z,102991.81
2023-01-27T07:46:22.579Z,102992.72
2023-01-27T07:48:26.795Z,102996.19
2023-01-27T07:50:31.138Z,102990.06
2023-01-27T07:52:35.779Z,102989.19
2023-01-27T07:54:40.040Z,102988.31
2023-01-27T07:56:45.479Z,102992.72
2023-01-27T07:58:50.050Z,102988.31
2023-01-27T08:00:55.910Z,102986.59
2023-01-27T08:03:01.436Z,102997.91
2023-01-27T08:05:07.352Z,102999.69
2023-01-27T08:07:13.860Z,103003.16
2023-01-27T08:09:18.172Z,103001.44
2023-01-27T08:11:22.656Z,102997.03
2023-01-27T08:13:27.196Z,103002.28
2023-01-27T08:15:32.542Z,103005.81
2023-01-27T08:17:37.789Z,103005.81
2023-01-27T08:19:42.549Z,103000.53
2023-01-27T08:21:46.971Z,103008.41
2023-01-27T08:23:51.870Z,103011.91
2023-01-27T08:25:58.135Z,103013.66
2023-01-27T08:28:02.868Z,103021.56
2023-01-27T08:30:08.094Z,103025.03
2023-01-27T08:32:15.016Z,103038.19
2023-01-27T08:34:20.975Z,103032.06
2023-01-27T08:36:26.089Z,103035.53
2023-01-27T08:38:30.053Z,103028.53
2023-01-27T08:40:34.386Z,103038.19
2023-01-27T08:42:38.397Z,103047.81
2023-01-27T08:44:42.746Z,103038.16
2023-01-27T08:46:46.936Z,103040.78
2023-01-27T08:48:52.106Z,103037.28
2023-01-27T08:50:57.925Z,103040.78
2023-01-27T08:53:04.355Z,103050.38
2023-01-27T08:55:09.028Z,103048.63
2023-01-27T08:57:13.713Z,103051.25
2023-01-27T08:59:19.155Z,103054.75
2023-01-27T09:01:23.228Z,103052.13
2023-01-27T09:03:27.969Z,103049.50
2023-01-27T09:05:32.649Z,103051.25
2023-01-27T09:07:38.607Z,103055.63
2023-01-27T09:09:42.698Z,103049.50
2023-01-27T09:11:47.598Z,103049.47
2023-01-27T09:13:52.189Z,103035.47
2023-01-27T09:15:56.832Z,103023.19
2023-01-27T09:18:01.287Z,102995.19
2023-01-27T09:20:06.288Z,102995.22
2023-01-27T09:22:10.432Z,102998.72
2023-01-27T09:24:18.186Z,102999.59
2023-01-27T09:26:22.767Z,103013.56
2023-01-27T09:28:27.452Z,103004.75
2023-01-27T09:30:32.101Z,103003.81
2023-01-27T09:32:36.530Z,102993.28
2023-01-27T09:34:40.773Z,102988.88
2023-01-27T09:36:50.458Z,102984.47
2023-01-27T09:38:57.793Z,102981.81
2023-01-27T09:41:30.884Z,102983.50
2023-01-27T09:44:11.962Z,102969.44
2023-01-27T09:46:40.463Z,102970.28
2023-01-27T09:49:18.372Z,102960.56
2023-01-27T09:51:34.047Z,102965.72
2023-01-27T09:54:16.273Z,102960.44
2023-01-27T09:56:29.887Z,102965.63
2023-01-27T09:58:45.770Z,102969.03
2023-01-27T10:01:02.271Z,102965.50
2023-01-27T10:03:39.654Z,102960.19
2023-01-27T10:06:05.582Z,102964.44
2023-01-27T10:08:31.361Z,102961.69
2023-01-27T10:10:46.981Z,102953.72
2023-01-27T10:13:04.057Z,102953.69
2023-01-27T10:15:20.075Z,102959.69
2023-01-27T10:17:37.751Z,102948.09
2023-01-27T10:19:50.948Z,102952.41
2023-01-27T10:22:01.296Z,102955.72
2023-01-27T10:24:14.725Z,102948.66
2023-01-27T10:26:30.610Z,102955.69
2023-01-27T10:28:39.396Z,102951.25
2023-01-27T10:30:52.062Z,102960.97
2023-01-27T10:33:03.107Z,102957.50
2023-01-27T10:35:18.323Z,102961.03
2023-01-27T10:37:34.363Z,102964.59
2023-01-27T10:39:47.409Z,102966.31
2023-01-27T10:42:00.245Z,102956.63
2023-01-27T10:44:22.125Z,102962.72
2023-01-27T10:46:37.259Z,102961.75
2023-01-27T10:48:48.773Z,102948.41
2023-01-27T10:50:58.986Z,102946.50
2023-01-27T10:53:11.268Z,102935.94
2023-01-27T10:55:19.566Z,102943.78
2023-01-27T10:57:30.406Z,102942.03
2023-01-27T10:59:42.479Z,102942.97
2023-01-27T11:01:51.954Z,102942.16
2023-01-27T11:04:00.480Z,102944.84
2023-01-27T11:06:09.712Z,102951.03
2023-01-27T11:08:17.615Z,102946.69
2023-01-27T11:10:29.498Z,102946.84
2023-01-27T11:12:38.082Z,102958.34
2023-01-27T11:14:47.722Z,102953.13
2023-01-27T11:16:54.882Z,102957.56
2023-01-27T11:19:07.506Z,102962.88
2023-01-27T11:21:17.144Z,102954.09
2023-01-27T11:23:23.905Z,102950.53
2023-01-27T11:25:36.005Z,102962.78
2023-01-27T11:27:58.358Z,102964.53
2023-01-27T11:30:11.188Z,102970.72
2023-01-27T11:32:32.650Z,102977.78
2023-01-27T11:34:43.278Z,102978.75
2023-01-27T11:36:49.902Z,102978.81
2023-01-27T11:38:55.904Z,102970.97
2023-01-27T11:41:00.293Z,102977.13
2023-01-27T11:43:06.499Z,102965.75
2023-01-27T11:45:17.481Z,102959.66
2023-01-27T11:47:26.480Z,102963.13
2023-01-27T11:49:32.744Z,102963.94
2023-01-27T11:51:41.168Z,102967.44
2023-01-27T11:53:47.061Z,102967.41
2023-01-27T11:55:55.105Z,102969.16
2023-01-27T11:58:12.762Z,102968.28
2023-01-27T12:00:25.792Z,102960.44
2023-01-27T12:02:36.987Z,102960.44
2023-01-27T12:04:52.114Z,102963.13
2023-01-27T12:07:01.005Z,102969.28
2023-01-27T12:09:05.640Z,102969.31
2023-01-27T12:11:24.718Z,102964.06
2023-01-27T12:13:31.513Z,102964.97
2023-01-27T12:15:38.346Z,102967.63
2023-01-27T12:17:44.649Z,102965.00
2023-01-27T12:19:49.123Z,102963.19
2023-01-27T12:21:56.177Z,102962.31
2023-01-27T12:24:01.161Z,102951.75
2023-01-27T12:26:07.699Z,102956.16
2023-01-27T12:28:24.863Z,102952.59
2023-01-27T12:30:32.310Z,102944.75
2023-01-27T12:32:42.367Z,102936.00
2023-01-27T12:34:50.782Z,102930.75
2023-01-27T12:36:56.377Z,102923.72
2023-01-27T12:39:03.024Z,102915.78
2023-01-27T12:41:11.365Z,102909.59
2023-01-27T12:43:17.044Z,102906.94
2023-01-27T12:45:27.279Z,102907.81
2023-01-27T12:47:32.844Z,102905.97
2023-01-27T12:49:40.917Z,102895.41
2023-01-27T12:51:52.115Z,102893.59
2023-01-27T12:54:17.551Z,102883.03
2023-01-27T12:56:24.591Z,102880.34
2023-01-27T12:58:36.231Z,102869.81
2023-01-27T13:00:47.330Z,102872.41
2023-01-27T13:02:54.440Z,102872.34
2023-01-27T13:05:03.754Z,102868.78
2023-01-27T13:07:13.506Z,102871.47
2023-01-27T13:09:27.978Z,102866.25
2023-01-27T13:11:37.662Z,102870.66
2023-01-27T13:13:50.135Z,102867.19
2023-01-27T13:15:59.720Z,102868.94
2023-01-27T13:18:22.055Z,102863.69
2023-01-27T13:20:31.495Z,102867.22
2023-01-27T13:22:47.785Z,102852.31
2023-01-27T13:24:57.420Z,102850.56
2023-01-27T13:27:05.335Z,102847.09
2023-01-27T13:29:17.653Z,102855.84
2023-01-27T13:31:37.084Z,102851.44
2023-01-27T13:33:48.312Z,102856.72
2023-01-27T13:36:02.161Z,102848.00
2023-01-27T13:38:13.005Z,102848.84
2023-01-27T13:40:22.265Z,102836.59
2023-01-27T13:42:33.503Z,102838.38
2023-01-27T13:44:42.821Z,102838.38
2023-01-27T13:46:49.496Z,102832.22
2023-01-27T13:48:57.662Z,102828.72
2023-01-27T13:51:10.046Z,102831.28
2023-01-27T13:53:17.721Z,102834.81
2023-01-27T13:55:27.996Z,102836.56
2023-01-27T13:57:54.625Z,102832.22
2023-01-27T14:00:09.643Z,102824.25
2023-01-27T14:02:39.279Z,102826.84
2023-01-27T14:05:06.580Z,102821.50
2023-01-27T14:07:26.226Z,102805.69
2023-01-27T14:09:53.500Z,102805.66
2023-01-27T14:12:08.976Z,102802.94
2023-01-27T14:14:43.686Z,102807.25
2023-01-27T14:17:11.345Z,102809.00
2023-01-27T14:19:38.110Z,102815.97
2023-01-27T14:21:53.903Z,102815.09
2023-01-27T14:24:04.883Z,102808.91
2023-01-27T14:26:21.823Z,102813.31
2023-01-27T14:28:38.628Z,102815.09
2023-01-27T14:30:45.872Z,102802.81
2023-01-27T14:32:57.012Z,102804.56
2023-01-27T14:35:24.464Z,102801.06
2023-01-27T14:37:33.552Z,102791.38
2023-01-27T14:39:48.109Z,102797.59
2023-01-27T14:42:01.582Z,102795.00
2023-01-27T14:44:15.273Z,102800.31
2023-01-27T14:46:30.797Z,102787.22
2023-01-27T14:48:47.896Z,102795.16
2023-01-27T14:51:03.182Z,102795.22
2023-01-27T14:53:31.594Z,102788.28
2023-01-27T14:55:45.704Z,102795.34
2023-01-27T14:57:58.065Z,102807.66
2023-01-27T15:00:21.488Z,102800.66
2023-01-27T15:02:41.653Z,102805.94
2023-01-27T15:04:56.760Z,102805.13
2023-01-27T15:07:07.260Z,102805.13
2023-01-27T15:09:22.134Z,102801.69
2023-01-27T15:11:45.705Z,102800.81
2023-01-27T15:14:05.345Z,102796.47
2023-01-27T15:16:35.228Z,102789.50
2023-01-27T15:19:08.154Z,102788.72
2023-01-27T15:21:27.424Z,102785.22
2023-01-27T15:23:53.970Z,102787.88
2023-01-27T15:26:01.125Z,102780.84
2023-01-27T15:28:06.812Z,102791.38
2023-01-27T15:30:23.085Z,102778.19
2023-01-27T15:32:37.542Z,102772.00
2023-01-27T15:34:41.178Z,102774.63
2023-01-27T15:37:00.693Z,102769.34
2023-01-27T15:39:21.816Z,102776.34
2023-01-27T15:41:27.664Z,102778.94
2023-01-27T15:43:33.233Z,102773.72
2023-01-27T15:45:38.323Z,102772.75
2023-01-27T15:47:42.211Z,102772.75
2023-01-27T15:49:49.205Z,102779.75
2023-01-27T15:51:55.814Z,102773.63
2023-01-27T15:54:01.398Z,102777.09
2023-01-27T15:56:07.203Z,102773.56
2023-01-27T15:58:24.997Z,102781.47
2023-01-27T16:00:34.969Z,102777.94
2023-01-27T16:02:41.090Z,102777.91
2023-01-27T16:04:45.304Z,102779.69
2023-01-27T16:06:52.065Z,102795.50
2023-01-27T16:08:59.477Z,102791.97
2023-01-27T16:11:40.998Z,102795.50
2023-01-27T16:13:45.395Z,102793.75
2023-01-27T16:15:51.153Z,102802.53
2023-01-27T16:18:01.749Z,102801.69
2023-01-27T16:20:21.405Z,102806.97
2023-01-27T16:22:28.971Z,102804.34
2023-01-27T16:24:37.891Z,102803.47
2023-01-27T16:26:44.996Z,102809.63
2023-01-27T16:28:52.699Z,102806.09
2023-01-27T16:31:05.494Z,102802.66
2023-01-27T16:33:17.722Z,102804.41
2023-01-27T16:35:23.527Z,102802.66
2023-01-27T16:37:30.743Z,102802.69
2023-01-27T16:39:41.363Z,102805.31
2023-01-27T16:41:55.496Z,102806.22
2023-01-27T16:44:03.729Z,102811.56
2023-01-27T16:46:30.251Z,102804.50
2023-01-27T16:48:40.716Z,102808.09
2023-01-27T16:50:46.023Z,102807.25
2023-01-27T16:52:50.017Z,102808.19
2023-01-27T16:54:56.409Z,102812.56
2023-01-27T16:57:00.486Z,102805.59
2023-01-27T16:59:06.489Z,102808.25
2023-01-27T17:01:21.615Z,102802.97
2023-01-27T17:03:34.397Z,102807.41
2023-01-27T17:05:38.506Z,102807.41
2023-01-27T17:07:42.236Z,102810.94
2023-01-27T17:09:55.168Z,102817.06
2023-01-27T17:11:59.394Z,102815.34
2023-01-27T17:14:04.431Z,102822.38
2023-01-27T17:16:09.515Z,102821.53
2023-01-27T17:18:16.730Z,102821.53
2023-01-27T17:20:28.378Z,102825.94
2023-01-27T17:22:39.180Z,102832.06
2023-01-27T17:24:50.159Z,102823.34
2023-01-27T17:27:02.052Z,102823.34
2023-01-27T17:29:06.383Z,102824.19
2023-01-27T17:31:10.939Z,102825.09
2023-01-27T17:33:21.134Z,102827.69
2023-01-27T17:35:27.006Z,102826.78
2023-01-27T17:37:32.817Z,102822.38
2023-01-27T17:39:40.594Z,102823.28
2023-01-27T17:41:47.574Z,102823.28
2023-01-27T17:43:51.701Z,102820.69
2023-01-27T17:46:15.454Z,102826.81
2023-01-27T17:48:21.619Z,102827.75
2023-01-27T17:50:31.499Z,102826.03
2023-01-27T17:52:35.978Z,102822.53
2023-01-27T17:54:42.900Z,102822.56
2023-01-27T17:56:46.923Z,102825.19
2023-01-27T17:58:54.495Z,102827.84
2023-01-27T18:00:58.441Z,102820.84
2023-01-27T18:03:04.402Z,102827.88
2023-01-27T18:05:19.795Z,102834.06
2023-01-27T18:07:23.578Z,102843.72
2023-01-27T18:09:28.972Z,102848.16
2023-01-27T18:11:36.143Z,102855.13
2023-01-27T18:13:42.503Z,102857.78
2023-01-27T18:15:50.858Z,102856.03
2023-01-27T18:18:00.359Z,102865.72
2023-01-27T18:20:08.526Z,102865.75
2023-01-27T18:22:17.100Z,102873.63
2023-01-27T18:24:23.513Z,102868.38
2023-01-27T18:26:30.653Z,102869.25
2023-01-27T18:28:36.440Z,102864.00
2023-01-27T18:30:47.746Z,102861.38
2023-01-27T18:32:53.045Z,102864.03
2023-01-27T18:34:59.724Z,102870.13
2023-01-27T18:37:06.520Z,102864.03
2023-01-27T18:41:49.472Z,102869.31
2023-01-27T18:43:53.174Z,102859.72
2023-01-27T18:45:57.405Z,102855.38
2023-01-27T18:48:01.475Z,102866.81
2023-01-27T18:50:18.131Z,102870.34
2023-01-27T18:52:21.803Z,102865.09
2023-01-27T18:54:26.030Z,102859.88
2023-01-27T18:56:29.787Z,102857.31
2023-01-27T18:58:35.073Z,102862.59
2023-01-27T19:00:43.909Z,102844.25
2023-01-27T19:02:51.206Z,102839.94
2023-01-27T19:04:54.952Z,102838.25
2023-01-27T19:06:59.219Z,102839.19
2023-01-27T19:09:04.989Z,102842.75
2023-01-27T19:11:10.514Z,102848.88
2023-01-27T19:13:15.984Z,102842.78
2023-01-27T19:15:24.111Z,102848.06
2023-01-27T19:17:29.879Z,102842.88
2023-01-27T19:19:33.639Z,102846.41
2023-01-27T19:21:39.398Z,102856.03
2023-01-27T19:23:46.057Z,102853.44
2023-01-27T19:25:51.946Z,102858.72
2023-01-27T19:27:58.676Z,102844.75
2023-01-27T19:30:27.993Z,102844.78
2023-01-27T19:32:33.266Z,102835.16
2023-01-27T19:34:39.323Z,102833.47
2023-01-27T19:36:45.166Z,102825.63
2023-01-27T19:38:49.345Z,102838.78
2023-01-27T19:40:53.130Z,102838.75
2023-01-27T19:42:57.207Z,102834.41
2023-01-27T19:45:00.884Z,102827.44
2023-01-27T19:47:05.545Z,102823.09
2023-01-27T19:49:16.774Z,102834.47
2023-01-27T19:51:21.181Z,102833.63
2023-01-27T19:53:24.889Z,102830.13
2023-01-27T19:55:28.570Z,102834.56
2023-01-27T19:57:32.111Z,102836.28
2023-01-27T19:59:35.744Z,102837.19
2023-01-27T20:01:39.624Z,102838.94
2023-01-27T20:03:43.553Z,102831.09
2023-01-27T20:05:49.047Z,102834.63
2023-01-27T20:07:53.758Z,102850.34
2023-01-27T20:09:57.441Z,102853.00
2023-01-27T20:12:01.281Z,102853.03
2023-01-27T20:14:07.755Z,102846.03
2023-01-27T20:16:11.413Z,102852.16
2023-01-27T20:18:17.385Z,102845.19
2023-01-27T20:20:21.414Z,102846.13
2023-01-27T20:22:28.159Z,102850.47
2023-01-27T20:24:31.847Z,102845.22
2023-01-27T20:26:37.601Z,102840.00
2023-01-27T20:28:41.369Z,102835.63
2023-01-27T20:30:44.994Z,102833.91
2023-01-27T20:32:49.533Z,102842.63
2023-01-27T20:34:53.426Z,102835.63
2023-01-27T20:36:57.765Z,102845.25
2023-01-27T20:39:03.036Z,102844.38
2023-01-27T20:41:08.434Z,102847.00
2023-01-27T20:43:12.012Z,102851.34
2023-01-27T20:45:16.576Z,102857.47
2023-01-27T20:47:21.058Z,102854.84
2023-01-27T20:49:25.086Z,102852.25
2023-01-27T20:51:28.807Z,102863.59
2023-01-27T20:53:34.960Z,102863.59
2023-01-27T20:55:40.208Z,102859.22
2023-01-27T20:57:44.103Z,102861.88
2023-01-27T20:59:47.813Z,102863.59
2023-01-27T21:01:51.536Z,102871.47
2023-01-27T21:03:55.532Z,102869.69
2023-01-27T21:05:59.470Z,102869.69
2023-01-27T21:08:03.253Z,102869.66
2023-01-27T21:10:08.405Z,102881.88
2023-01-27T21:12:13.432Z,102880.16
2023-01-27T21:14:17.028Z,102881.03
2023-01-27T21:16:20.914Z,102876.63
2023-01-27T21:18:25.248Z,102871.41
2023-01-27T21:20:28.805Z,102869.63
2023-01-27T21:22:32.486Z,102872.25
2023-01-27T21:24:37.009Z,102864.41
2023-01-27T21:26:41.344Z,102873.13
2023-01-27T21:28:46.564Z,102871.38
2023-01-27T21:30:50.135Z,102870.50
2023-01-27T21:32:54.036Z,102870.47
2023-01-27T21:34:58.735Z,102876.59
2023-01-27T21:37:02.976Z,102874.81
2023-01-27T21:39:07.498Z,102872.16
2023-01-27T21:41:14.453Z,102867.78
2023-01-27T21:43:35.362Z,102864.28
2023-01-27T21:45:39.386Z,102862.50
2023-01-27T21:47:43.115Z,102861.63
2023-01-27T21:50:04.389Z,102861.63
2023-01-27T21:52:08.215Z,102852.88
2023-01-27T21:54:12.216Z,102850.25
2023-01-27T21:56:15.908Z,102836.25
2023-01-27T21:58:19.516Z,102838.00
2023-01-27T22:00:24.812Z,102824.88
2023-01-27T22:02:29.890Z,102827.50
2023-01-27T22:04:33.425Z,102819.63
2023-01-27T22:06:38.371Z,102822.25
2023-01-27T22:08:41.984Z,102826.66
2023-01-27T22:10:45.624Z,102822.31
2023-01-27T22:12:50.010Z,102814.47
2023-01-27T22:14:53.524Z,102816.19
2023-01-27T22:16:56.998Z,102811.84
2023-01-27T22:19:02.046Z,102809.22
2023-01-27T22:21:06.417Z,102806.59
2023-01-27T22:23:10.007Z,102791.72
2023-01-27T22:25:16.237Z,102790.81
2023-01-27T22:27:20.836Z,102795.22
2023-01-27T22:29:24.423Z,102785.59
2023-01-27T22:31:28.163Z,102795.22
2023-01-27T22:33:32.449Z,102807.47
2023-01-27T22:35:37.583Z,102805.75
2023-01-27T22:37:44.628Z,102809.25
2023-01-27T22:39:48.732Z,102817.97
2023-01-27T22:41:53.213Z,102810.09
2023-01-27T22:43:58.258Z,102813.59
2023-01-27T22:46:03.601Z,102813.59
2023-01-27T22:48:09.176Z,102814.47
2023-01-27T22:50:13.622Z,102812.72
2023-01-27T22:52:19.151Z,102813.63
2023-01-27T22:54:23.491Z,102818.88
2023-01-27T22:56:27.705Z,102818.88
2023-01-27T22:58:32.392Z,102820.59
2023-01-27T23:00:36.560Z,102810.09
2023-01-27T23:02:40.645Z,102822.38
2023-01-27T23:04:44.652Z,102818.03
2023-01-27T23:06:48.661Z,102817.19
2023-01-27T23:08:54.505Z,102810.19
2023-01-27T23:11:02.477Z,102806.69
2023-01-27T23:13:06.478Z,102814.56
2023-01-27T23:15:11.093Z,102811.94
2023-01-27T23:17:15.556Z,102813.69
2023-01-27T23:19:19.836Z,102813.66
2023-01-27T23:21:23.384Z,102818.03
2023-01-27T23:23:27.393Z,102812.78
2023-01-27T23:25:33.303Z,102808.38
2023-01-27T23:27:37.444Z,102807.50
2023-01-27T23:29:41.171Z,102816.25
2023-01-27T23:31:45.083Z,102822.38
2023-01-27T23:33:49.746Z,102824.09
2023-01-27T23:35:57.780Z,102831.09
2023-01-27T23:38:03.145Z,102829.34
2023-01-27T23:40:07.838Z,102815.38
2023-01-27T23:42:12.963Z,102820.63
2023-01-27T23:44:17.762Z,102810.13
2023-01-27T23:46:21.828Z,102807.50
2023-01-27T23:48:26.429Z,102806.63
2023-01-27T23:50:30.087Z,102798.78
2023-01-27T23:52:35.787Z,102801.38
2023-01-27T23:54:39.554Z,102791.75
2023-01-27T23:56:44.005Z,102793.50
2023-01-27T23:58:50.011Z,102789.09
